Time;durP1;ratioP1;P1;durP2;ratioP2;P2;SDS_P1;SDS_P2;PMS_P1;PMS_P2;Temp;Humidity;BMP_temperature;BMP_pressure;BME280_temperature;BME280_humidity;BME280_pressure;Samples;Min_cycle;Max_cycle;Signal;HPM_P1;HPM_P2
2021/06/03 00:00:34;;;;;;;0.40;0.20;;;17.50;99.90;;;;;;5009733;28;20405;-80
2021/06/03 00:03:00;;;;;;;0.40;0.20;;;17.50;99.90;;;;;;5009592;28;20412;-82
2021/06/03 00:05:41;;;;;;;0.40;0.30;;;17.50;99.90;;;;;;5008067;28;20443;-82
2021/06/03 00:08:07;;;;;;;0.40;0.30;;;17.50;99.90;;;;;;5009776;28;20774;-81
2021/06/03 00:10:36;;;;;;;0.40;0.20;;;17.40;99.90;;;;;;5011533;28;20512;-79
2021/06/03 00:13:03;;;;;;;0.40;0.20;;;17.40;99.90;;;;;;5013589;28;20404;-80
2021/06/03 00:15:29;;;;;;;0.40;0.20;;;17.30;99.90;;;;;;5009105;28;20409;-81
2021/06/03 00:17:56;;;;;;;0.40;0.30;;;17.40;99.90;;;;;;5002179;28;20758;-80
2021/06/03 00:20:28;;;;;;;0.40;0.30;;;17.40;99.90;;;;;;5009949;28;20388;-85
2021/06/03 00:22:55;;;;;;;0.40;0.30;;;17.40;99.90;;;;;;5009342;28;20397;-80
2021/06/03 00:25:21;;;;;;;0.40;0.20;;;17.30;99.90;;;;;;5009040;28;20670;-80
2021/06/03 00:27:48;;;;;;;0.40;0.20;;;17.30;99.90;;;;;;4997829;28;20420;-80
2021/06/03 00:30:14;;;;;;;0.40;0.30;;;17.30;99.90;;;;;;5008910;28;20385;-82
2021/06/03 00:32:40;;;;;;;0.40;0.20;;;17.30;99.90;;;;;;5008684;28;20408;-81
2021/06/03 00:35:07;;;;;;;0.40;0.20;;;17.30;99.90;;;;;;5008508;28;20767;-80
2021/06/03 00:37:32;;;;;;;0.40;0.20;;;17.30;99.90;;;;;;5008190;28;20874;-81
2021/06/03 00:40:16;;;;;;;0.40;0.20;;;17.20;99.90;;;;;;5011449;28;20476;-79
2021/06/03 00:42:41;;;;;;;0.40;0.20;;;17.40;99.90;;;;;;5009181;28;20886;-80
2021/06/03 00:45:10;;;;;;;0.40;0.20;;;17.10;99.90;;;;;;5013392;28;20387;-80
2021/06/03 00:47:36;;;;;;;0.40;0.20;;;17.20;99.90;;;;;;5012199;28;20427;-80
2021/06/03 00:50:08;;;;;;;0.40;0.30;;;17.10;99.90;;;;;;5012509;28;20391;-80
2021/06/03 00:52:33;;;;;;;0.40;0.30;;;17.20;99.90;;;;;;5003112;28;20418;-80
2021/06/03 00:54:59;;;;;;;0.40;0.30;;;17.20;99.90;;;;;;5031505;28;20398;-81
2021/06/03 00:57:24;;;;;;;0.40;0.20;;;17.20;99.90;;;;;;5034387;28;20407;-81
2021/06/03 00:59:50;;;;;;;0.40;0.20;;;17.20;99.90;;;;;;5034349;28;20853;-80
2021/06/03 01:02:16;;;;;;;0.40;0.30;;;17.20;99.90;;;;;;5018794;28;20936;-80
2021/06/03 01:04:41;;;;;;;0.40;0.20;;;17.10;99.90;;;;;;5026802;28;20418;-81
2021/06/03 01:07:07;;;;;;;0.40;0.20;;;17.10;99.90;;;;;;5022695;28;20391;-82
2021/06/03 01:10:08;;;;;;;0.40;0.20;;;17.20;99.90;;;;;;5022146;28;20889;-82
2021/06/03 01:12:49;;;;;;;0.40;0.20;;;17.10;99.90;;;;;;5002191;28;20413;-81
2021/06/03 01:15:16;;;;;;;0.40;0.30;;;17.10;99.90;;;;;;5002714;28;20400;-80
2021/06/03 01:17:42;;;;;;;0.40;0.30;;;17.20;99.90;;;;;;5022475;28;20899;-81
2021/06/03 01:20:09;;;;;;;0.40;0.20;;;17.10;99.90;;;;;;5024336;28;20392;-79
2021/06/03 01:23:06;;;;;;;0.40;0.20;;;17.20;99.90;;;;;;5024441;28;20472;-81
2021/06/03 01:25:32;;;;;;;0.40;0.30;;;17.10;99.90;;;;;;5025923;28;20494;-80
2021/06/03 01:28:02;;;;;;;0.40;0.20;;;17.10;99.90;;;;;;5002368;28;20401;-80
2021/06/03 01:30:33;;;;;;;0.40;0.30;;;17.10;99.90;;;;;;5021660;28;20395;-82
2021/06/03 01:33:06;;;;;;;0.40;0.20;;;17.10;99.90;;;;;;5024145;28;20433;-81
2021/06/03 01:35:36;;;;;;;0.40;0.30;;;17.10;99.90;;;;;;5021020;28;20387;-80
2021/06/03 01:38:07;;;;;;;0.40;0.30;;;17.00;99.90;;;;;;5028983;28;20407;-81
2021/06/03 01:40:36;;;;;;;0.40;0.20;;;17.10;99.90;;;;;;5026029;28;20389;-80
2021/06/03 01:43:04;;;;;;;0.40;0.20;;;17.10;99.90;;;;;;4996801;28;20791;-80
2021/06/03 01:45:29;;;;;;;0.40;0.20;;;17.20;99.90;;;;;;5013447;28;20782;-81
2021/06/03 01:47:56;;;;;;;0.40;0.20;;;17.10;99.90;;;;;;4996685;28;20442;-81
2021/06/03 01:50:23;;;;;;;0.40;0.30;;;17.00;99.90;;;;;;5014135;28;20466;-81
2021/06/03 01:52:50;;;;;;;0.40;0.30;;;17.00;99.90;;;;;;5013602;28;20974;-81
2021/06/03 01:55:16;;;;;;;0.40;0.20;;;16.90;99.90;;;;;;5013062;28;20381;-81
2021/06/03 01:57:43;;;;;;;0.40;0.20;;;16.90;99.90;;;;;;5025027;28;20411;-80
2021/06/03 02:00:11;;;;;;;0.40;0.30;;;16.90;99.90;;;;;;5013430;28;20471;-82
2021/06/03 02:02:38;;;;;;;0.40;0.20;;;16.80;99.90;;;;;;5014010;28;20413;-81
2021/06/03 02:05:05;;;;;;;0.40;0.20;;;16.80;99.90;;;;;;5034061;28;20434;-80
2021/06/03 02:07:32;;;;;;;0.50;0.40;;;16.80;99.90;;;;;;5033078;28;20387;-81
2021/06/03 02:09:58;;;;;;;0.40;0.30;;;16.70;99.90;;;;;;5033691;28;20391;-80
2021/06/03 02:12:25;;;;;;;0.40;0.30;;;16.70;99.90;;;;;;5015750;28;20387;-80
2021/06/03 02:14:53;;;;;;;0.40;0.20;;;16.70;99.90;;;;;;5033375;28;20387;-79
2021/06/03 02:17:29;;;;;;;0.40;0.20;;;16.50;99.90;;;;;;5033353;28;20792;-80
2021/06/03 02:20:13;;;;;;;0.40;0.20;;;16.70;99.90;;;;;;5033400;28;20874;-80
2021/06/03 02:22:41;;;;;;;0.40;0.20;;;16.70;99.90;;;;;;5032953;28;20383;-79
2021/06/03 02:25:07;;;;;;;0.40;0.20;;;16.80;99.90;;;;;;5033475;28;20410;-80
2021/06/03 02:27:34;;;;;;;0.40;0.20;;;16.80;99.90;;;;;;5032809;28;20877;-80
2021/06/03 02:30:01;;;;;;;0.40;0.20;;;16.70;99.90;;;;;;5032065;28;20433;-80
2021/06/03 02:32:31;;;;;;;0.40;0.20;;;16.80;99.90;;;;;;5032975;28;20465;-81
2021/06/03 02:34:57;;;;;;;0.40;0.30;;;16.90;99.90;;;;;;5033279;28;20402;-80
2021/06/03 02:37:22;;;;;;;0.40;0.20;;;16.70;99.90;;;;;;5032900;28;20406;-80
2021/06/03 02:39:49;;;;;;;0.40;0.20;;;16.70;99.90;;;;;;5032176;28;20406;-80
2021/06/03 02:42:16;;;;;;;0.40;0.20;;;16.70;99.90;;;;;;5033010;28;20417;-80
2021/06/03 02:44:42;;;;;;;0.40;0.20;;;16.60;99.90;;;;;;5032313;28;20414;-79
2021/06/03 02:47:09;;;;;;;0.40;0.30;;;16.50;99.90;;;;;;5032840;28;20521;-79
2021/06/03 02:49:35;;;;;;;0.40;0.20;;;16.50;99.90;;;;;;5031240;28;20750;-81
2021/06/03 02:52:06;;;;;;;0.40;0.30;;;16.50;99.90;;;;;;5015011;28;20950;-80
2021/06/03 02:54:32;;;;;;;0.40;0.20;;;16.50;99.90;;;;;;5015215;28;20741;-80
2021/06/03 02:56:59;;;;;;;0.40;0.30;;;16.40;99.90;;;;;;5032633;28;20417;-81
2021/06/03 02:59:25;;;;;;;0.40;0.20;;;16.30;99.90;;;;;;5032420;28;20426;-81
2021/06/03 03:01:50;;;;;;;0.40;0.20;;;16.40;99.90;;;;;;5019776;28;20820;-81
2021/06/03 03:04:16;;;;;;;0.40;0.30;;;16.30;99.90;;;;;;5012527;28;20480;-81
2021/06/03 03:06:42;;;;;;;0.40;0.30;;;16.30;99.90;;;;;;5010916;28;20487;-80
2021/06/03 03:09:08;;;;;;;0.40;0.30;;;16.30;99.90;;;;;;5013224;28;20871;-80
2021/06/03 03:11:33;;;;;;;0.50;0.40;;;16.30;99.90;;;;;;5011996;28;20867;-85
2021/06/03 03:13:59;;;;;;;0.40;0.27;;;16.40;99.90;;;;;;5012785;28;20874;-83
2021/06/03 03:16:25;;;;;;;0.40;0.20;;;16.40;99.90;;;;;;5012381;28;20811;-80
2021/06/03 03:18:51;;;;;;;0.40;0.30;;;16.40;99.90;;;;;;5011932;28;20420;-80
2021/06/03 03:21:17;;;;;;;0.40;0.20;;;16.50;99.90;;;;;;5012510;28;20388;-80
2021/06/03 03:23:43;;;;;;;0.40;0.20;;;16.40;99.90;;;;;;5012001;28;20389;-80
2021/06/03 03:26:08;;;;;;;0.40;0.20;;;16.40;99.90;;;;;;5012839;28;20387;-80
2021/06/03 03:28:34;;;;;;;0.40;0.25;;;16.50;99.90;;;;;;5011961;28;20391;-85
2021/06/03 03:31:00;;;;;;;0.40;0.20;;;16.40;99.90;;;;;;5012500;28;20434;-80
2021/06/03 03:33:26;;;;;;;0.40;0.20;;;16.50;99.90;;;;;;5011834;28;20484;-80
2021/06/03 03:35:52;;;;;;;0.40;0.20;;;16.70;99.90;;;;;;5011841;28;20418;-80
2021/06/03 03:38:20;;;;;;;0.50;0.50;;;16.60;99.90;;;;;;5012226;28;20504;-79
2021/06/03 03:40:46;;;;;;;0.40;0.30;;;16.60;99.90;;;;;;5013534;28;20403;-80
2021/06/03 03:43:12;;;;;;;0.40;0.20;;;16.60;99.90;;;;;;5031749;28;20390;-80
2021/06/03 03:45:38;;;;;;;0.40;0.30;;;16.50;99.90;;;;;;5031003;28;20473;-80
2021/06/03 03:48:04;;;;;;;0.40;0.20;;;16.50;99.90;;;;;;5031535;28;20383;-80
2021/06/03 03:50:32;;;;;;;0.40;0.20;;;16.50;99.90;;;;;;5031845;28;20441;-80
2021/06/03 03:52:58;;;;;;;0.40;0.20;;;16.50;99.90;;;;;;5030694;28;20473;-80
2021/06/03 03:55:24;;;;;;;0.40;0.30;;;16.50;99.90;;;;;;5032030;28;20386;-80
2021/06/03 03:57:50;;;;;;;0.40;0.20;;;16.50;99.90;;;;;;5028339;28;20417;-80
2021/06/03 04:00:27;;;;;;;0.40;0.20;;;16.60;99.90;;;;;;5031537;28;20379;-79
2021/06/03 04:02:53;;;;;;;0.40;0.30;;;16.60;99.90;;;;;;5029544;28;20387;-80
2021/06/03 04:05:19;;;;;;;0.40;0.20;;;16.60;99.90;;;;;;5031512;28;20401;-79
2021/06/03 04:07:46;;;;;;;0.40;0.30;;;16.60;99.90;;;;;;5030571;28;20387;-80
2021/06/03 04:10:18;;;;;;;0.40;0.20;;;16.60;99.90;;;;;;5031663;28;20738;-79
2021/06/03 04:12:44;;;;;;;0.40;0.30;;;16.60;99.90;;;;;;5029980;28;20820;-80
2021/06/03 04:15:12;;;;;;;0.40;0.30;;;16.70;99.90;;;;;;5031549;28;20383;-80
2021/06/03 04:17:38;;;;;;;0.40;0.20;;;16.80;99.90;;;;;;5030327;28;20529;-86
2021/06/03 04:20:08;;;;;;;0.40;0.20;;;16.80;99.90;;;;;;5031259;28;20715;-80
2021/06/03 04:22:34;;;;;;;0.40;0.20;;;16.70;99.90;;;;;;5031366;28;20417;-80
2021/06/03 04:25:00;;;;;;;0.40;0.30;;;16.80;99.90;;;;;;5030802;28;20796;-79
2021/06/03 04:27:26;;;;;;;0.40;0.20;;;16.80;99.90;;;;;;5030334;28;20427;-80
2021/06/03 04:29:51;;;;;;;0.40;0.30;;;16.80;99.90;;;;;;5030792;28;20375;-79
2021/06/03 04:32:18;;;;;;;0.40;0.20;;;16.90;99.90;;;;;;5031190;28;20414;-80
2021/06/03 04:34:43;;;;;;;0.40;0.30;;;16.90;99.90;;;;;;5030472;28;20959;-80
2021/06/03 04:37:10;;;;;;;0.40;0.22;;;16.80;99.90;;;;;;5031165;28;20450;-80
2021/06/03 04:39:36;;;;;;;0.40;0.20;;;16.90;99.90;;;;;;5031230;28;20386;-80
2021/06/03 04:42:02;;;;;;;0.40;0.20;;;16.90;99.90;;;;;;5030603;28;20379;-80
2021/06/03 04:44:28;;;;;;;0.40;0.30;;;16.90;99.90;;;;;;5030805;28;20462;-81
2021/06/03 04:46:54;;;;;;;0.40;0.22;;;17.10;99.90;;;;;;5029996;28;20533;-79
2021/06/03 04:49:19;;;;;;;0.40;0.20;;;17.00;99.90;;;;;;5029685;28;20388;-81
2021/06/03 04:51:45;;;;;;;0.40;0.20;;;17.10;99.90;;;;;;5012734;28;20411;-81
2021/06/03 04:54:11;;;;;;;0.40;0.20;;;17.20;99.90;;;;;;5013373;28;20476;-81
2021/06/03 04:56:36;;;;;;;0.40;0.20;;;17.20;99.90;;;;;;5013102;28;20901;-80
2021/06/03 04:59:02;;;;;;;0.40;0.30;;;17.20;99.90;;;;;;5030503;28;20387;-80
2021/06/03 05:01:28;;;;;;;0.40;0.20;;;17.20;99.90;;;;;;5004204;28;20417;-80
2021/06/03 05:03:54;;;;;;;0.40;0.20;;;17.20;99.90;;;;;;5010807;28;20432;-79
2021/06/03 05:06:20;;;;;;;0.40;0.30;;;17.30;99.90;;;;;;5011506;28;20835;-75
2021/06/03 05:08:45;;;;;;;0.40;0.30;;;17.30;99.90;;;;;;4993229;28;20804;-76
2021/06/03 05:11:12;;;;;;;0.40;0.40;;;17.40;99.90;;;;;;5011365;28;20412;-75
2021/06/03 05:13:37;;;;;;;0.40;0.30;;;17.40;99.90;;;;;;5010062;28;20391;-75
2021/06/03 05:16:03;;;;;;;0.40;0.20;;;17.50;99.90;;;;;;5010786;28;20843;-75
2021/06/03 05:18:29;;;;;;;0.40;0.20;;;17.50;99.90;;;;;;5011010;28;20404;-75
2021/06/03 05:20:55;;;;;;;0.40;0.20;;;17.60;99.90;;;;;;5017637;28;20430;-75
2021/06/03 05:23:22;;;;;;;0.40;0.30;;;17.50;99.90;;;;;;5030953;28;20376;-74
2021/06/03 05:25:48;;;;;;;0.40;0.20;;;17.60;99.90;;;;;;5030392;28;20390;-75
2021/06/03 05:28:15;;;;;;;0.40;0.20;;;17.70;99.90;;;;;;5030646;28;20789;-74
2021/06/03 05:30:40;;;;;;;0.40;0.30;;;17.70;99.90;;;;;;5016863;28;20507;-75
2021/06/03 05:33:06;;;;;;;0.40;0.20;;;17.80;99.90;;;;;;5033833;28;20426;-74
2021/06/03 05:35:32;;;;;;;0.40;0.20;;;17.80;99.90;;;;;;5016900;28;20446;-74
2021/06/03 05:37:58;;;;;;;0.40;0.30;;;17.80;99.90;;;;;;5033753;28;20410;-76
2021/06/03 05:40:26;;;;;;;0.40;0.20;;;17.80;99.90;;;;;;5016852;28;20448;-74
2021/06/03 05:42:54;;;;;;;0.40;0.20;;;17.80;99.90;;;;;;5033735;28;20383;-75
2021/06/03 05:45:20;;;;;;;0.40;0.20;;;18.00;99.90;;;;;;5034479;28;20426;-75
2021/06/03 05:47:46;;;;;;;0.40;0.20;;;17.90;99.90;;;;;;5033730;28;20414;-75
2021/06/03 05:50:14;;;;;;;0.40;0.20;;;17.80;99.90;;;;;;5034017;28;20786;-75
2021/06/03 05:52:41;;;;;;;0.40;0.25;;;17.90;99.90;;;;;;5034410;28;20403;-75
2021/06/03 05:55:09;;;;;;;0.40;0.20;;;18.00;99.90;;;;;;5033711;28;20737;-76
2021/06/03 05:57:35;;;;;;;0.40;0.20;;;18.00;99.90;;;;;;5032820;28;20411;-75
2021/06/03 06:00:10;;;;;;;0.40;0.20;;;18.00;99.90;;;;;;5015292;28;20392;-75
2021/06/03 06:03:13;;;;;;;0.40;0.20;;;18.00;99.90;;;;;;5030063;28;20391;-75
2021/06/03 06:08:14;;;;;;;0.40;0.20;;;18.20;99.90;;;;;;5033792;28;20409;-75
2021/06/03 06:10:41;;;;;;;0.40;0.20;;;18.20;99.90;;;;;;5016023;28;20379;-75
2021/06/03 06:13:08;;;;;;;0.40;0.20;;;18.30;99.90;;;;;;5033207;28;20384;-76
2021/06/03 06:15:35;;;;;;;0.40;0.30;;;18.40;99.90;;;;;;5033616;28;20739;-76
2021/06/03 06:18:00;;;;;;;0.40;0.20;;;18.40;99.90;;;;;;5033024;28;20411;-76
2021/06/03 06:20:27;;;;;;;0.40;0.30;;;18.40;99.90;;;;;;5015910;28;20398;-76
2021/06/03 06:22:56;;;;;;;0.40;0.30;;;18.60;99.90;;;;;;5015464;28;20383;-75
2021/06/03 06:25:22;;;;;;;0.40;0.30;;;18.70;99.90;;;;;;5033550;28;20429;-75
2021/06/03 06:27:48;;;;;;;0.40;0.30;;;18.70;99.90;;;;;;5026361;28;20447;-75
2021/06/03 06:30:15;;;;;;;0.40;0.20;;;18.70;99.90;;;;;;5013544;28;20385;-75
2021/06/03 06:32:40;;;;;;;0.40;0.20;;;18.80;99.90;;;;;;5013652;28;20492;-75
2021/06/03 06:35:08;;;;;;;0.40;0.20;;;19.00;99.90;;;;;;5012940;28;20496;-75
2021/06/03 06:37:33;;;;;;;0.40;0.30;;;19.10;99.90;;;;;;5013302;28;20423;-75
2021/06/03 06:39:59;;;;;;;0.40;0.20;;;19.30;99.90;;;;;;5012399;28;20385;-73
2021/06/03 06:42:26;;;;;;;0.40;0.30;;;19.40;99.90;;;;;;5012870;28;20415;-75
2021/06/03 06:44:52;;;;;;;0.40;0.30;;;19.50;99.90;;;;;;5012780;28;20396;-74
2021/06/03 06:47:18;;;;;;;0.40;0.30;;;19.60;99.90;;;;;;5013034;28;20385;-74
2021/06/03 06:49:43;;;;;;;0.40;0.30;;;19.70;99.90;;;;;;5012988;28;20393;-74
2021/06/03 06:52:09;;;;;;;0.40;0.30;;;19.90;99.90;;;;;;5012729;28;20516;-74
2021/06/03 06:54:35;;;;;;;0.40;0.30;;;20.10;99.90;;;;;;5013109;28;20500;-74
2021/06/03 06:57:00;;;;;;;0.40;0.30;;;20.20;99.90;;;;;;5012423;28;20448;-73
2021/06/03 06:59:26;;;;;;;0.40;0.30;;;20.40;99.90;;;;;;5016546;28;20913;-74
2021/06/03 07:01:52;;;;;;;0.40;0.20;;;20.50;99.90;;;;;;5026753;28;21157;-74
2021/06/03 07:04:17;;;;;;;0.40;0.30;;;20.60;99.90;;;;;;5020923;28;20406;-73
2021/06/03 07:06:43;;;;;;;0.40;0.20;;;20.80;99.90;;;;;;5016382;28;20393;-74
2021/06/03 07:09:09;;;;;;;0.40;0.30;;;21.00;99.90;;;;;;5019298;28;20660;-72
2021/06/03 07:11:35;;;;;;;0.40;0.30;;;21.00;99.90;;;;;;5012866;28;20385;-72
2021/06/03 07:14:01;;;;;;;0.40;0.20;;;21.00;99.90;;;;;;5028624;28;20379;-72
2021/06/03 07:16:27;;;;;;;0.40;0.30;;;21.00;99.90;;;;;;5032519;28;20389;-73
2021/06/03 07:18:52;;;;;;;0.40;0.30;;;21.00;99.90;;;;;;5032418;28;20395;-72
2021/06/03 07:21:18;;;;;;;0.40;0.30;;;21.00;99.90;;;;;;5032414;28;20379;-72
2021/06/03 07:23:44;;;;;;;0.40;0.30;;;20.90;99.90;;;;;;5032423;28;20784;-73
2021/06/03 07:26:10;;;;;;;0.40;0.30;;;20.90;99.90;;;;;;5024366;28;20427;-73
2021/06/03 07:28:36;;;;;;;0.40;0.20;;;20.90;99.90;;;;;;5018489;28;20861;-71
2021/06/03 07:31:03;;;;;;;0.40;0.30;;;21.00;99.90;;;;;;5013875;28;20403;-74
2021/06/03 07:33:29;;;;;;;0.40;0.20;;;21.30;99.90;;;;;;5030978;28;20434;-74
2021/06/03 07:35:55;;;;;;;0.40;0.30;;;21.50;99.40;;;;;;5001144;28;20979;-74
2021/06/03 07:38:20;;;;;;;0.40;0.20;;;21.70;97.70;;;;;;5006754;28;21016;-72
2021/06/03 07:40:46;;;;;;;0.40;0.30;;;21.80;97.00;;;;;;5012376;28;20389;-73
2021/06/03 07:43:13;;;;;;;0.40;0.30;;;21.90;95.70;;;;;;5011804;28;20736;-73
2021/06/03 07:45:40;;;;;;;0.40;0.20;;;21.80;94.90;;;;;;5012007;28;20381;-73
2021/06/03 07:48:09;;;;;;;0.40;0.30;;;21.90;94.70;;;;;;5011610;28;20440;-72
2021/06/03 07:50:36;;;;;;;0.40;0.30;;;21.80;94.50;;;;;;5012089;28;20389;-72
2021/06/03 07:53:03;;;;;;;0.40;0.22;;;21.90;94.10;;;;;;4992852;28;20499;-72
2021/06/03 07:55:30;;;;;;;0.40;0.30;;;21.90;93.90;;;;;;5012247;28;20423;-72
2021/06/03 07:57:58;;;;;;;0.40;0.20;;;21.90;94.10;;;;;;4993258;28;20733;-73
2021/06/03 08:00:26;;;;;;;0.40;0.30;;;21.80;94.90;;;;;;5011928;28;20855;-73
2021/06/03 08:02:52;;;;;;;0.40;0.30;;;21.80;94.60;;;;;;5011602;28;20400;-73
2021/06/03 08:05:20;;;;;;;0.40;0.30;;;22.40;94.90;;;;;;5011765;28;20748;-72
2021/06/03 08:07:48;;;;;;;0.40;0.20;;;22.10;94.50;;;;;;5011961;28;20443;-73
2021/06/03 08:10:18;;;;;;;0.40;0.30;;;22.10;92.90;;;;;;5011014;28;20531;-73
2021/06/03 08:12:44;;;;;;;0.40;0.30;;;22.00;93.00;;;;;;5012172;28;20455;-73
2021/06/03 08:15:12;;;;;;;0.40;0.30;;;22.00;93.60;;;;;;5011161;28;20377;-72
2021/06/03 08:17:38;;;;;;;0.40;0.30;;;22.10;93.40;;;;;;5021826;28;20414;-73
2021/06/03 08:20:09;;;;;;;0.40;0.30;;;22.20;93.30;;;;;;5015609;28;20417;-72
2021/06/03 08:22:34;;;;;;;0.40;0.20;;;22.40;92.70;;;;;;5030688;28;20398;-74
2021/06/03 08:25:00;;;;;;;0.40;0.30;;;22.30;92.60;;;;;;5030763;28;20383;-73
2021/06/03 08:27:26;;;;;;;0.40;0.30;;;22.30;91.70;;;;;;5031181;28;20387;-74
2021/06/03 08:29:51;;;;;;;0.40;0.20;;;22.20;91.40;;;;;;5030942;28;20384;-73
2021/06/03 08:32:17;;;;;;;0.40;0.20;;;22.30;91.50;;;;;;5027383;28;20387;-75
2021/06/03 08:34:43;;;;;;;0.40;0.30;;;22.40;91.50;;;;;;5031433;28;20391;-73
2021/06/03 08:37:09;;;;;;;0.40;0.30;;;22.40;91.90;;;;;;5030349;28;20461;-74
2021/06/03 08:39:34;;;;;;;0.40;0.20;;;22.60;91.50;;;;;;5013303;28;20399;-73
2021/06/03 08:42:00;;;;;;;0.40;0.30;;;22.80;90.60;;;;;;5020603;28;20389;-74
2021/06/03 08:44:29;;;;;;;0.40;0.30;;;22.70;90.70;;;;;;5014147;28;20521;-74
2021/06/03 08:46:56;;;;;;;0.40;0.30;;;22.70;90.60;;;;;;5017497;28;20385;-83
2021/06/03 08:49:22;;;;;;;0.40;0.30;;;22.70;90.30;;;;;;5021006;28;20721;-75
2021/06/03 08:51:52;;;;;;;0.40;0.30;;;22.80;90.60;;;;;;5019064;28;20511;-75
2021/06/03 08:54:17;;;;;;;0.40;0.30;;;22.90;90.10;;;;;;4991828;28;20440;-74
2021/06/03 08:56:43;;;;;;;0.40;0.30;;;22.90;90.00;;;;;;5017606;28;20442;-76
2021/06/03 08:59:09;;;;;;;0.40;0.30;;;22.90;88.30;;;;;;5018347;28;20484;-77
2021/06/03 09:01:35;;;;;;;0.40;0.30;;;22.80;87.70;;;;;;4993136;28;20405;-71
2021/06/03 09:04:01;;;;;;;0.40;0.30;;;22.80;86.90;;;;;;5021164;28;20900;-73
2021/06/03 09:06:27;;;;;;;0.40;0.30;;;22.90;87.90;;;;;;5022056;28;20397;-72
2021/06/03 09:08:58;;;;;;;0.40;0.20;;;23.10;87.40;;;;;;5022855;28;20429;-73
2021/06/03 09:11:26;;;;;;;0.40;0.20;;;23.50;87.30;;;;;;5021146;28;20747;-71
2021/06/03 09:13:58;;;;;;;0.40;0.30;;;23.40;84.30;;;;;;5023468;28;20389;-71
2021/06/03 09:16:28;;;;;;;0.40;0.20;;;23.30;85.30;;;;;;5031070;28;20387;-72
2021/06/03 09:19:04;;;;;;;0.40;0.20;;;23.30;85.80;;;;;;5025233;28;20470;-71
2021/06/03 09:21:36;;;;;;;0.50;0.30;;;23.40;86.00;;;;;;5016489;28;20807;-73
2021/06/03 09:24:09;;;;;;;0.40;0.20;;;23.30;85.60;;;;;;5022401;28;20418;-72
2021/06/03 09:26:54;;;;;;;0.40;0.30;;;23.30;86.90;;;;;;5024498;28;20399;-74
2021/06/03 09:29:27;;;;;;;0.40;0.20;;;23.40;86.70;;;;;;5024084;28;20406;-72
2021/06/03 09:32:01;;;;;;;0.40;0.30;;;23.40;86.20;;;;;;5023959;28;20405;-74
2021/06/03 09:34:26;;;;;;;0.40;0.30;;;23.40;87.10;;;;;;5003189;28;20989;-73
2021/06/03 09:36:58;;;;;;;0.40;0.30;;;23.70;85.20;;;;;;5024067;28;20498;-73
2021/06/03 09:39:26;;;;;;;0.40;0.30;;;23.60;83.80;;;;;;5026926;28;20408;-74
2021/06/03 09:41:59;;;;;;;0.40;0.20;;;23.40;84.90;;;;;;5018770;28;20782;-73
2021/06/03 09:44:34;;;;;;;0.40;0.20;;;23.40;85.50;;;;;;5014548;28;20392;-73
2021/06/03 09:47:11;;;;;;;0.40;0.30;;;23.50;85.20;;;;;;5013542;28;20436;-72
2021/06/03 09:49:43;;;;;;;0.40;0.20;;;23.70;85.90;;;;;;5014322;28;20392;-74
2021/06/03 09:52:14;;;;;;;0.40;0.20;;;23.80;84.20;;;;;;5013685;28;20420;-73
2021/06/03 09:54:41;;;;;;;0.40;0.20;;;23.70;85.60;;;;;;5014156;28;20423;-73
2021/06/03 09:57:12;;;;;;;0.40;0.20;;;23.60;87.30;;;;;;5013462;28;20444;-72
2021/06/03 09:59:40;;;;;;;0.40;0.30;;;23.80;84.20;;;;;;5013977;28;20818;-75
2021/06/03 10:02:21;;;;;;;0.40;0.20;;;23.90;84.70;;;;;;5027440;28;20383;-74
2021/06/03 10:04:48;;;;;;;0.40;0.30;;;23.80;82.40;;;;;;5033747;28;20391;-74
2021/06/03 10:07:30;;;;;;;0.40;0.30;;;23.70;84.70;;;;;;5033033;28;20383;-72
2021/06/03 10:10:05;;;;;;;0.40;0.30;;;23.80;83.50;;;;;;5033558;28;20375;-76
2021/06/03 10:12:43;;;;;;;0.40;0.30;;;23.80;86.10;;;;;;5033306;28;20394;-72
2021/06/03 10:15:13;;;;;;;0.40;0.30;;;23.90;85.00;;;;;;5029924;28;20423;-72
2021/06/03 10:17:50;;;;;;;0.40;0.20;;;24.00;84.50;;;;;;5021406;28;20408;-73
2021/06/03 10:20:49;;;;;;;0.40;0.20;;;23.90;86.30;;;;;;5021574;28;20397;-73
2021/06/03 10:23:19;;;;;;;0.40;0.30;;;24.00;84.40;;;;;;5023260;28;20392;-73
2021/06/03 10:25:47;;;;;;;0.40;0.30;;;24.00;84.30;;;;;;5023514;28;20754;-76
2021/06/03 10:28:19;;;;;;;0.40;0.30;;;24.20;84.50;;;;;;5017136;28;20400;-74
2021/06/03 10:30:54;;;;;;;0.40;0.30;;;24.20;85.10;;;;;;5013859;28;20443;-74
2021/06/03 10:33:23;;;;;;;0.40;0.30;;;24.30;85.40;;;;;;5022929;28;20403;-73
2021/06/03 10:35:52;;;;;;;0.40;0.30;;;24.40;83.40;;;;;;5033187;28;20410;-73
2021/06/03 10:38:19;;;;;;;0.40;0.30;;;24.40;81.50;;;;;;5032365;28;20411;-73
2021/06/03 10:40:48;;;;;;;0.40;0.30;;;24.40;82.40;;;;;;5033077;28;20522;-73
2021/06/03 10:43:14;;;;;;;0.40;0.20;;;24.30;81.30;;;;;;5032171;28;20861;-73
2021/06/03 10:45:41;;;;;;;0.40;0.30;;;24.50;81.30;;;;;;5032971;28;20423;-73
2021/06/03 10:48:08;;;;;;;0.40;0.20;;;24.60;80.30;;;;;;5032220;28;20390;-73
2021/06/03 10:50:48;;;;;;;0.40;0.20;;;24.60;81.40;;;;;;5033075;28;20399;-72
2021/06/03 10:53:17;;;;;;;0.40;0.30;;;24.70;79.90;;;;;;5014365;28;20411;-73
2021/06/03 10:55:46;;;;;;;0.40;0.30;;;24.90;80.90;;;;;;5032629;28;20753;-74
2021/06/03 10:58:24;;;;;;;0.40;0.30;;;24.80;82.10;;;;;;5031729;28;20494;-72
2021/06/03 11:01:00;;;;;;;0.40;0.30;;;24.40;80.10;;;;;;5028870;28;20886;-72
2021/06/03 11:03:46;;;;;;;0.40;0.30;;;24.90;79.50;;;;;;5012499;28;20388;-73
2021/06/03 11:06:16;;;;;;;0.40;0.20;;;25.10;81.70;;;;;;5012082;28;20392;-74
2021/06/03 11:09:08;;;;;;;0.40;0.20;;;25.20;79.50;;;;;;5013131;28;20427;-74
2021/06/03 11:11:47;;;;;;;0.40;0.30;;;25.40;78.50;;;;;;5012046;28;20408;-73
2021/06/03 11:14:17;;;;;;;0.40;0.30;;;25.30;78.90;;;;;;5012285;28;20381;-72
2021/06/03 11:16:54;;;;;;;0.40;0.30;;;25.30;77.80;;;;;;5012577;28;20428;-72
2021/06/03 11:19:22;;;;;;;0.40;0.30;;;25.50;78.20;;;;;;5011765;28;20421;-74
2021/06/03 11:21:50;;;;;;;0.40;0.20;;;25.70;77.80;;;;;;5012394;28;20408;-73
2021/06/03 11:24:16;;;;;;;0.40;0.20;;;25.70;78.30;;;;;;5012049;28;20474;-73
2021/06/03 11:26:44;;;;;;;0.40;0.30;;;25.60;78.00;;;;;;5012221;28;20428;-72
2021/06/03 11:29:34;;;;;;;0.40;0.20;;;25.50;77.60;;;;;;5012165;28;20480;-72
2021/06/03 11:32:06;;;;;;;0.40;0.30;;;25.60;75.90;;;;;;5011606;28;20404;-74
2021/06/03 11:34:38;;;;;;;0.40;0.20;;;26.00;74.30;;;;;;5020887;28;20422;-72
2021/06/03 11:37:24;;;;;;;0.40;0.30;;;26.10;71.80;;;;;;5021182;28;20424;-76
2021/06/03 11:40:10;;;;;;;0.40;0.20;;;26.20;72.90;;;;;;5020177;28;20397;-73
2021/06/03 11:42:50;;;;;;;0.40;0.20;;;27.00;70.40;;;;;;5020964;28;20397;-72
2021/06/03 11:45:29;;;;;;;0.40;0.30;;;27.30;68.10;;;;;;5010611;28;20411;-74
2021/06/03 11:47:59;;;;;;;0.40;0.20;;;27.50;64.90;;;;;;5026066;28;20490;-74
2021/06/03 11:50:24;;;;;;;0.40;0.30;;;28.00;63.50;;;;;;5031439;28;20383;-72
2021/06/03 11:52:56;;;;;;;0.50;0.30;;;28.20;66.70;;;;;;5024350;28;20416;-73
2021/06/03 11:55:47;;;;;;;0.40;0.20;;;27.90;60.20;;;;;;5011248;28;20883;-74
2021/06/03 11:58:29;;;;;;;0.40;0.30;;;27.80;59.00;;;;;;5010898;28;20408;-73
2021/06/03 12:01:29;;;;;;;0.40;0.30;;;28.20;58.80;;;;;;5013451;28;20418;-72
2021/06/03 12:04:08;;;;;;;0.40;0.20;;;28.60;60.50;;;;;;5031262;28;20395;-73
2021/06/03 12:06:34;;;;;;;0.40;0.20;;;28.80;59.40;;;;;;5031778;28;20403;-72
2021/06/03 12:09:03;;;;;;;0.40;0.20;;;29.00;59.00;;;;;;5024107;28;20387;-71
2021/06/03 12:11:36;;;;;;;0.40;0.20;;;29.10;60.90;;;;;;4993605;28;20749;-72
2021/06/03 12:14:09;;;;;;;0.40;0.30;;;29.20;57.50;;;;;;5011576;28;20400;-74
2021/06/03 12:16:41;;;;;;;0.40;0.20;;;29.20;59.00;;;;;;5011920;28;20385;-73
2021/06/03 12:19:11;;;;;;;0.40;0.30;;;29.30;57.10;;;;;;5010746;28;20488;-75
2021/06/03 12:21:37;;;;;;;0.40;0.20;;;29.30;55.70;;;;;;5011588;28;20407;-74
2021/06/03 12:24:04;;;;;;;0.40;0.20;;;29.20;57.00;;;;;;4993918;28;20740;-74
2021/06/03 12:26:30;;;;;;;0.40;0.20;;;29.10;57.90;;;;;;5010737;28;20384;-71
2021/06/03 12:28:56;;;;;;;0.40;0.20;;;29.00;55.80;;;;;;4993152;28;20393;-72
2021/06/03 12:31:27;;;;;;;0.50;0.30;;;28.80;56.20;;;;;;5010363;28;20731;-72
2021/06/03 12:33:54;;;;;;;0.50;0.20;;;28.30;57.50;;;;;;5011380;28;20420;-71
2021/06/03 12:36:21;;;;;;;0.40;0.20;;;28.20;57.60;;;;;;5010492;28;20404;-72
2021/06/03 12:38:51;;;;;;;0.50;0.20;;;28.30;56.60;;;;;;5010407;28;20895;-73
2021/06/03 12:41:22;;;;;;;0.50;0.30;;;27.90;57.70;;;;;;5010979;28;20812;-75
2021/06/03 12:43:59;;;;;;;0.50;0.30;;;27.90;57.40;;;;;;4993645;28;20827;-72
2021/06/03 12:46:51;;;;;;;0.40;0.30;;;28.00;56.90;;;;;;5010856;28;20412;-73
2021/06/03 12:49:26;;;;;;;0.50;0.30;;;27.80;57.50;;;;;;5004700;28;20399;-73
2021/06/03 12:51:59;;;;;;;0.40;0.20;;;28.20;57.30;;;;;;5013259;28;20399;-73
2021/06/03 12:54:33;;;;;;;0.40;0.30;;;28.30;56.90;;;;;;5030362;28;20742;-74
2021/06/03 12:57:01;;;;;;;0.40;0.30;;;28.50;57.20;;;;;;5015310;28;20408;-74
2021/06/03 12:59:31;;;;;;;0.40;0.20;;;28.40;56.00;;;;;;5010579;28;20396;-73